Time;durP1;ratioP1;P1;durP2;ratioP2;P2;SDS_P1;SDS_P2;PMS_P1;PMS_P2;Temp;Humidity;BMP_temperature;BMP_pressure;BME280_temperature;BME280_humidity;BME280_pressure;Samples;Min_cycle;Max_cycle;Signal;HPM_P1;HPM_P2
2022/05/23 00:02:19;;;;;;;2.00;1.33;;;22.30;55.60;;;22.84;39.41;97877.94;4856025;28;115414;-91
2022/05/23 00:04:47;;;;;;;1.50;1.37;;;22.30;55.60;;;22.81;39.62;97875.97;4863951;28;114146;-92
2022/05/23 00:07:53;;;;;;;2.03;1.40;;;22.30;55.80;;;22.73;39.51;97866.00;4876747;28;124059;-92
2022/05/23 00:10:21;;;;;;;2.03;1.53;;;22.30;55.90;;;22.74;39.77;97864.78;4861471;28;122058;-93
2022/05/23 00:12:49;;;;;;;1.80;1.63;;;22.20;55.90;;;22.71;39.80;97863.59;4859690;29;113358;-92
2022/05/23 00:15:18;;;;;;;1.87;1.50;;;22.20;56.00;;;22.68;39.98;97864.41;4858428;28;114127;-92
2022/05/23 00:17:45;;;;;;;1.30;1.20;;;22.10;56.00;;;22.68;39.80;97860.81;4853329;29;125269;-94
2022/05/23 00:20:15;;;;;;;1.40;1.30;;;22.10;56.10;;;22.65;39.84;97856.03;4861790;28;123037;-92
2022/05/23 00:22:42;;;;;;;1.40;1.23;;;22.10;56.20;;;22.65;40.07;97856.03;4853680;28;114400;-93
2022/05/23 00:25:47;;;;;;;1.73;1.50;;;22.10;56.20;;;22.60;39.98;97842.38;4873491;28;113132;-92
2022/05/23 00:28:14;;;;;;;1.20;1.10;;;22.10;56.30;;;22.59;40.21;97850.00;4859306;28;123371;-92
2022/05/23 00:30:41;;;;;;;2.63;1.80;;;22.00;56.30;;;22.56;40.15;97842.41;4837572;29;122939;-92
2022/05/23 00:36:34;;;;;;;2.40;1.40;;;22.00;56.40;;;22.46;40.31;97818.78;4861581;28;114499;-91
2022/05/23 00:45:27;;;;;;;1.47;1.37;;;21.80;56.60;;;22.39;40.49;97795.53;4889222;28;114376;-92
2022/05/23 00:47:56;;;;;;;1.30;1.20;;;21.80;56.60;;;22.38;40.28;97794.72;4890267;28;113641;-92
2022/05/23 00:50:24;;;;;;;1.30;1.20;;;21.80;56.70;;;22.36;40.20;97788.72;4875858;28;123173;-92
2022/05/23 00:52:56;;;;;;;1.60;1.30;;;21.90;57.00;;;22.37;40.41;97793.13;4885268;28;123596;-91
2022/05/23 00:55:32;;;;;;;1.50;1.40;;;21.80;56.80;;;22.36;40.27;97797.16;4872037;28;115334;-91
2022/05/23 00:58:08;;;;;;;1.53;1.43;;;21.80;56.90;;;22.35;40.46;97792.72;4877781;28;114221;-92
2022/05/23 01:00:36;;;;;;;2.37;1.50;;;21.80;56.90;;;22.33;40.31;97797.19;4856238;28;123237;-93
2022/05/23 01:03:13;;;;;;;1.40;1.30;;;21.80;57.00;;;22.30;40.29;97790.38;4846170;28;123091;-93
2022/05/23 01:05:40;;;;;;;2.30;1.50;;;21.80;57.00;;;22.27;40.36;97785.56;4858819;28;114250;-92
2022/05/23 01:08:45;;;;;;;1.40;1.20;;;21.70;57.00;;;22.21;40.79;97787.22;4872844;28;112461;-93
2022/05/23 01:11:13;;;;;;;1.33;1.23;;;21.70;57.00;;;22.21;40.64;97775.97;4856656;28;123901;-93
2022/05/23 01:13:41;;;;;;;1.80;1.50;;;21.60;57.10;;;22.19;40.44;97772.78;4848563;29;124003;-93
2022/05/23 01:19:50;;;;;;;1.30;1.20;;;21.60;57.20;;;22.14;41.02;97767.56;4870566;28;114633;-92
2022/05/23 01:25:58;;;;;;;1.50;1.40;;;21.60;57.50;;;22.05;40.97;97762.41;4874930;28;124744;-93
2022/05/23 01:28:26;;;;;;;1.40;1.30;;;21.40;57.40;;;22.03;40.98;97759.22;4863215;28;114714;-93
2022/05/23 01:30:57;;;;;;;2.00;1.60;;;21.50;57.60;;;21.99;40.67;97758.44;4861223;28;114261;-92
2022/05/23 01:33:24;;;;;;;1.30;1.20;;;21.50;57.50;;;21.95;40.71;97752.88;4862901;28;123503;-92
2022/05/23 01:36:11;;;;;;;1.30;1.20;;;21.40;57.40;;;21.90;40.99;97747.69;4859616;28;122813;-92
2022/05/23 01:42:19;;;;;;;2.43;1.40;;;21.40;57.50;;;21.87;40.87;97750.50;4864889;28;113856;-92
2022/05/23 01:44:46;;;;;;;1.53;1.43;;;21.30;57.60;;;21.86;41.22;97748.91;4881551;28;123515;-94
2022/05/23 01:47:32;;;;;;;1.60;1.50;;;21.30;57.60;;;21.85;41.53;97750.94;4871433;28;122795;-93
2022/05/23 01:50:18;;;;;;;2.80;1.37;;;21.30;57.80;;;21.82;40.87;97746.94;4880451;28;115530;-93
2022/05/23 01:53:05;;;;;;;1.57;1.47;;;21.30;57.80;;;21.82;41.12;97754.56;4880182;28;113882;-91
2022/05/23 01:55:57;;;;;;;2.23;1.67;;;21.30;57.90;;;21.78;41.30;97751.78;4861859;28;124242;-92
2022/05/23 02:01:14;;;;;;;1.37;1.27;;;21.20;58.00;;;21.77;41.53;97753.00;4878850;28;114094;-92
2022/05/23 02:03:46;;;;;;;2.00;1.40;;;21.20;58.00;;;21.75;41.20;97752.59;4869092;28;113221;-92
2022/05/23 02:06:16;;;;;;;2.20;1.37;;;21.20;58.10;;;21.73;41.22;97751.41;4844648;28;123470;-92
2022/05/23 02:08:42;;;;;;;1.93;1.50;;;21.20;58.20;;;21.72;41.69;97741.38;4878678;28;122914;-92
2022/05/23 02:15:31;;;;;;;1.80;1.40;;;21.20;58.40;;;21.66;41.64;97735.41;4881224;28;114152;-92
2022/05/23 02:18:00;;;;;;;1.60;1.30;;;21.10;58.50;;;21.64;41.82;97720.97;4875610;28;123948;-93
2022/05/23 02:20:27;;;;;;;1.13;1.03;;;21.10;58.60;;;21.62;41.50;97718.56;4869701;28;123283;-92
2022/05/23 02:23:13;;;;;;;2.37;1.40;;;21.10;58.70;;;21.57;41.72;97716.19;4870922;28;115708;-92
2022/05/23 02:25:40;;;;;;;1.70;1.60;;;21.00;58.60;;;21.56;41.83;97708.97;4847163;29;113285;-92
2022/05/23 02:29:02;;;;;;;1.50;1.17;;;21.00;58.80;;;21.52;41.62;97711.03;4861618;29;124013;-91
2022/05/23 02:31:29;;;;;;;1.60;1.40;;;21.00;58.80;;;21.52;41.57;97713.84;4859572;29;122865;-92
2022/05/23 02:34:18;;;;;;;2.47;1.40;;;21.00;58.90;;;21.51;42.12;97711.41;4846132;29;112498;-92
2022/05/23 02:37:04;;;;;;;2.03;1.43;;;20.90;58.90;;;21.48;42.03;97698.19;4843215;29;113224;-92
2022/05/23 02:39:33;;;;;;;2.20;1.47;;;20.90;59.00;;;21.46;41.95;97692.97;4862861;29;124400;-93
2022/05/23 02:41:59;;;;;;;2.17;1.57;;;20.90;59.20;;;21.45;42.30;97691.38;4860606;29;122685;-93
2022/05/23 02:44:27;;;;;;;1.70;1.40;;;20.90;59.30;;;21.44;42.30;97684.19;4858406;29;114579;-92
2022/05/23 02:47:32;;;;;;;2.93;1.33;;;20.90;59.40;;;21.42;42.43;97674.56;4846522;29;114264;-92
2022/05/23 02:50:01;;;;;;;2.37;1.60;;;20.90;59.50;;;21.37;42.33;97673.78;4854879;28;124387;-92
2022/05/23 02:52:30;;;;;;;1.50;1.40;;;20.90;59.80;;;21.33;42.51;97672.16;4879356;28;123798;-93
2022/05/23 02:54:56;;;;;;;2.10;1.90;;;20.80;59.70;;;21.32;42.69;97670.56;4869137;28;113851;-92
2022/05/23 02:57:23;;;;;;;2.90;1.57;;;20.80;59.90;;;21.27;42.87;97659.75;4815136;29;113194;-91
2022/05/23 02:59:49;;;;;;;2.10;1.80;;;20.80;60.30;;;21.19;42.90;97659.81;4843768;29;123799;-91
2022/05/23 03:05:41;;;;;;;2.23;1.90;;;20.60;60.60;;;21.05;43.25;97648.66;4869614;28;115451;-91
2022/05/23 03:08:11;;;;;;;2.13;1.87;;;20.60;60.80;;;21.03;43.30;97642.66;4864889;28;113537;-92
2022/05/23 03:10:38;;;;;;;1.90;1.60;;;20.50;60.90;;;21.01;43.36;97639.47;4863758;28;123450;-92
2022/05/23 03:13:26;;;;;;;3.00;1.60;;;20.50;61.00;;;21.01;43.47;97642.28;4874098;28;123236;-92
2022/05/23 03:15:55;;;;;;;1.90;1.70;;;20.50;61.10;;;21.02;43.38;97637.47;4865703;28;113874;-92
2022/05/23 03:18:40;;;;;;;2.23;1.50;;;20.50;61.30;;;21.02;43.76;97643.09;4882300;28;113167;-93
2022/05/23 03:27:36;;;;;;;1.83;1.50;;;20.40;61.50;;;21.02;43.68;97640.28;4867059;29;114860;-92
2022/05/23 03:30:23;;;;;;;1.40;1.20;;;20.40;61.50;;;20.98;43.86;97645.09;4877296;28;114432;-91
2022/05/23 03:32:51;;;;;;;1.43;1.30;;;20.50;61.60;;;20.93;43.63;97649.16;4881279;28;124595;-92
2022/05/23 03:35:19;;;;;;;1.57;1.47;;;20.40;61.50;;;20.95;43.84;97646.72;4881091;28;123068;-92
2022/05/23 03:37:47;;;;;;;2.27;1.27;;;20.40;61.70;;;20.92;43.77;97642.72;4884320;28;114371;-92
2022/05/23 03:40:52;;;;;;;2.20;1.53;;;20.40;61.80;;;20.90;43.72;97644.34;4874409;28;114876;-91
2022/05/23 03:43:18;;;;;;;2.60;1.33;;;20.40;61.80;;;20.91;44.10;97626.31;4866005;28;123372;-93
2022/05/23 03:49:48;;;;;;;1.60;1.40;;;20.40;62.00;;;20.85;44.16;97625.13;4885402;28;114698;-92
2022/05/23 03:52:35;;;;;;;4.43;1.67;;;20.30;62.10;;;20.85;44.16;97647.59;4882612;28;113571;-93
2022/05/23 03:55:03;;;;;;;1.30;1.20;;;20.30;62.20;;;20.85;44.39;97659.63;4881843;28;123907;-92
2022/05/23 03:58:09;;;;;;;2.63;1.53;;;20.30;62.40;;;20.77;44.05;97665.66;4872177;28;123603;-92
2022/05/23 04:01:09;;;;;;;2.17;1.60;;;20.30;62.40;;;20.67;44.38;97670.13;4863738;28;112316;-92
2022/05/23 04:04:33;;;;;;;1.73;1.43;;;20.20;62.30;;;20.62;44.21;97674.16;4863269;29;114743;-92
2022/05/23 04:07:39;;;;;;;2.30;1.47;;;20.20;62.50;;;20.58;44.42;97690.22;4862043;28;123436;-92
2022/05/23 04:10:25;;;;;;;1.70;1.30;;;20.10;62.70;;;20.58;44.55;97712.69;4871235;28;122975;-91
2022/05/23 04:13:30;;;;;;;2.10;1.60;;;20.10;62.70;;;20.54;44.69;97801.69;4881305;28;113934;-91
2022/05/23 04:16:23;;;;;;;1.63;1.50;;;20.10;62.90;;;20.45;44.98;97875.03;4881093;28;113264;-91
2022/05/23 04:18:50;;;;;;;6.33;2.00;;;20.00;63.40;;;20.32;45.38;97878.63;4869124;28;122273;-91
2022/05/23 04:21:17;;;;;;;6.20;2.43;;;19.90;63.70;;;20.15;45.59;97852.97;4865209;29;123772;-92
2022/05/23 04:31:10;;;;;;;1.93;1.67;;;19.50;63.50;;;19.79;45.65;97897.75;4872681;29;125118;-90
2022/05/23 04:37:18;;;;;;;2.13;1.93;;;19.40;63.60;;;19.72;45.63;97916.56;4871820;29;115733;-91
2022/05/23 04:40:24;;;;;;;2.80;1.80;;;19.30;64.00;;;19.69;46.03;97904.13;4884050;28;114372;-92
2022/05/23 04:43:30;;;;;;;2.03;1.70;;;19.30;64.60;;;19.68;46.15;97912.94;4850651;29;123771;-91
2022/05/23 04:45:57;;;;;;;2.20;1.70;;;19.30;64.60;;;19.71;46.42;97900.94;4868110;29;123337;-91
2022/05/23 04:51:49;;;;;;;1.80;1.67;;;19.30;65.30;;;19.73;47.03;97896.56;4875805;28;114546;-92
2022/05/23 04:55:12;;;;;;;1.93;1.60;;;19.30;66.40;;;19.66;48.34;97893.72;4853104;29;124014;-92
2022/05/23 04:58:03;;;;;;;2.17;1.57;;;19.30;68.20;;;19.65;48.19;97880.88;4870191;29;123661;-91
2022/05/23 05:00:31;;;;;;;2.50;1.37;;;19.20;67.80;;;19.66;48.36;97848.88;4850780;28;114497;-92
2022/05/23 05:03:00;;;;;;;1.67;1.57;;;19.20;68.30;;;19.69;48.31;97819.25;4881577;28;113011;-93
2022/05/23 05:05:46;;;;;;;2.53;1.70;;;19.20;68.50;;;19.71;49.23;97812.06;4887703;28;124413;-91
2022/05/23 05:08:31;;;;;;;3.83;2.00;;;19.30;70.10;;;19.68;50.42;97817.66;4873915;28;123595;-92
2022/05/23 05:11:17;;;;;;;2.10;1.60;;;19.20;71.90;;;19.62;50.21;97848.84;4868970;28;112441;-92
2022/05/23 05:17:25;;;;;;;3.30;1.70;;;19.10;72.90;;;;;;4890262;28;124480;-92
2022/05/23 05:19:54;;;;;;;3.47;2.00;;;19.10;74.10;;;19.66;51.12;97851.69;4888187;28;123581;-92
2022/05/23 05:22:21;;;;;;;2.70;1.67;;;19.10;74.10;;;19.72;51.17;97858.53;4884805;28;111923;-93
2022/05/23 05:24:48;;;;;;;3.80;2.13;;;19.20;74.40;;;19.79;50.86;97852.13;4882691;28;114268;-93
2022/05/23 05:31:03;;;;;;;2.43;1.80;;;19.30;74.90;;;19.85;50.97;97795.28;4885135;28;125025;-92
2022/05/23 05:33:39;;;;;;;1.93;1.60;;;19.30;75.20;;;19.90;51.38;97770.84;4859036;28;114741;-91
2022/05/23 05:36:21;;;;;;;3.70;2.70;;;19.30;76.10;;;19.90;51.58;97751.22;4853195;28;115609;-92
2022/05/23 05:39:05;;;;;;;3.67;2.33;;;19.30;77.00;;;19.90;51.85;97735.19;4854642;29;124213;-91
2022/05/23 05:45:41;;;;;;;4.23;2.07;;;19.30;77.50;;;19.91;52.09;97748.03;4893347;28;115337;-94
2022/05/23 05:52:12;;;;;;;2.13;1.57;;;19.30;78.20;;;19.94;52.24;97735.19;4884907;28;125129;-94
2022/05/23 06:02:07;;;;;;;2.07;1.73;;;19.40;79.40;;;19.98;51.99;97674.31;4883143;29;115013;-93
2022/05/23 06:04:54;;;;;;;5.90;1.83;;;19.40;79.30;;;20.05;51.81;97683.50;4871020;28;125873;-94
2022/05/23 06:13:12;;;;;;;7.63;2.80;;;19.50;80.30;;;20.32;52.13;97662.63;4893071;28;114015;-95
2022/05/23 06:15:39;;;;;;;4.83;2.93;;;19.60;80.40;;;20.32;51.95;97649.41;4879839;28;121798;-92
2022/05/23 06:18:06;;;;;;;4.97;2.63;;;19.60;80.40;;;20.37;51.93;97651.00;4874253;28;123288;-91
2022/05/23 06:20:32;;;;;;;2.43;2.03;;;19.70;80.40;;;20.41;52.08;97641.31;4870517;28;114224;-91
2022/05/23 06:23:01;;;;;;;5.07;2.27;;;19.70;80.30;;;20.48;52.04;97646.13;4875641;28;114222;-92
2022/05/23 06:25:28;;;;;;;5.93;2.80;;;19.80;80.60;;;20.55;51.85;97650.94;4871852;28;124211;-93
2022/05/23 06:27:55;;;;;;;8.30;2.80;;;19.80;80.60;;;20.58;51.89;97650.94;4873690;28;124284;-92
2022/05/23 06:30:22;;;;;;;5.47;2.60;;;19.90;80.70;;;20.60;51.64;97651.31;4875550;28;115311;-93
2022/05/23 06:32:48;;;;;;;3.97;2.40;;;19.90;80.70;;;20.63;51.99;97650.50;4858797;28;113816;-92
2022/05/23 06:35:17;;;;;;;2.60;2.40;;;19.90;81.00;;;20.64;51.71;97640.09;4855442;28;124084;-92
2022/05/23 06:37:44;;;;;;;3.73;2.43;;;20.00;80.80;;;20.66;52.03;97627.25;4839806;28;123057;-93
2022/05/23 06:40:14;;;;;;;3.00;2.43;;;20.00;80.90;;;20.67;51.83;97611.19;4852700;28;112726;-93
2022/05/23 06:42:41;;;;;;;3.03;2.53;;;21.50;82.40;;;20.65;52.22;97589.13;4856707;28;114372;-93
2022/05/23 06:45:10;;;;;;;4.83;2.40;;;20.00;81.20;;;20.65;52.20;97583.53;4871391;28;124892;-91
2022/05/23 06:47:57;;;;;;;4.10;2.57;;;20.00;81.50;;;20.66;52.39;97579.53;4853807;28;123798;-91
2022/05/23 06:50:47;;;;;;;4.00;2.07;;;20.10;81.70;;;20.68;52.43;97563.06;4876075;28;114289;-93
2022/05/23 06:53:55;;;;;;;6.30;2.20;;;21.30;83.10;;;20.66;52.43;97562.69;4859985;28;113471;-92
2022/05/23 06:57:18;;;;;;;4.67;2.20;;;20.10;82.40;;;20.64;52.24;97556.69;4879074;28;123206;-92
2022/05/23 06:59:47;;;;;;;4.10;2.43;;;20.00;81.90;;;20.68;52.11;97573.47;4871272;28;121875;-92
2022/05/23 07:02:34;;;;;;;4.03;2.00;;;20.10;82.10;;;20.72;52.14;97577.88;4876523;28;114411;-93
2022/05/23 07:13:27;;;;;;;2.00;1.80;;;20.20;81.10;;;20.98;51.30;97578.50;4857634;28;114121;-91
2022/05/23 07:15:55;;;;;;;2.23;1.90;;;20.40;81.10;;;21.10;51.05;97580.84;4873356;28;114266;-93
2022/05/23 07:18:22;;;;;;;2.80;1.90;;;20.40;80.90;;;21.18;50.54;97576.75;4855811;28;123725;-94
2022/05/23 07:20:49;;;;;;;2.80;2.00;;;20.50;80.60;;;21.26;50.37;97571.09;4875125;28;123124;-93
2022/05/23 07:23:17;;;;;;;2.90;1.73;;;20.60;80.20;;;21.29;50.04;97585.09;4883527;28;114479;-94
2022/05/23 07:25:43;;;;;;;3.47;2.03;;;20.60;79.70;;;21.31;49.98;97584.69;4879257;28;115110;-93
2022/05/23 07:28:10;;;;;;;4.70;2.53;;;20.70;79.40;;;21.34;49.94;97583.88;4855508;28;124418;-94
2022/05/23 07:30:38;;;;;;;2.50;1.90;;;20.70;79.30;;;21.34;49.61;97595.91;4876091;28;124104;-93
2022/05/23 07:33:06;;;;;;;2.23;1.70;;;20.70;79.00;;;21.40;49.93;97587.84;4874183;28;112128;-92
2022/05/23 07:35:32;;;;;;;2.63;1.80;;;20.70;78.80;;;21.44;49.44;97577.38;4872953;28;113040;-91
2022/05/23 07:37:59;;;;;;;1.73;1.63;;;20.80;78.90;;;21.48;49.62;97585.78;4870464;28;124022;-92
2022/05/23 07:40:26;;;;;;;2.40;1.80;;;20.80;79.30;;;21.50;49.39;97586.97;4871445;28;123912;-92
2022/05/23 07:42:53;;;;;;;3.60;2.17;;;20.90;78.60;;;21.54;49.14;97590.53;4854019;28;114205;-93
2022/05/23 07:45:20;;;;;;;3.23;2.83;;;20.90;78.50;;;21.58;49.01;97588.50;4869294;28;113939;-91
2022/05/23 07:47:47;;;;;;;1.97;1.77;;;20.90;78.40;;;21.64;49.34;97583.22;4854230;28;123762;-92
2022/05/23 07:50:13;;;;;;;1.80;1.70;;;21.00;78.30;;;21.72;48.81;97586.75;4837583;28;121664;-94
2022/05/23 08:00:29;;;;;;;2.37;2.10;;;21.00;78.10;;;21.76;49.06;97590.31;4868568;28;114706;-92
2022/05/23 08:00:55;;;;;;;2.13;1.80;;;21.20;77.60;;;21.80;48.54;97565.78;4872102;28;124412;-92
2022/05/23 08:03:22;;;;;;;2.60;1.80;;;21.20;77.40;;;21.83;48.65;97568.56;4852783;28;115019;-92
2022/05/23 08:05:48;;;;;;;1.60;1.50;;;21.20;77.20;;;21.90;48.16;97566.91;4871788;28;113987;-93
2022/05/23 08:08:15;;;;;;;3.97;1.70;;;21.30;77.10;;;21.95;48.13;97560.78;4867479;28;123437;-93
2022/05/23 08:10:43;;;;;;;2.27;1.67;;;21.30;77.00;;;22.03;48.25;97546.25;4848764;28;122598;-93
2022/05/23 08:13:11;;;;;;;2.33;1.60;;;21.30;76.80;;;22.09;48.03;97554.22;4870469;28;115128;-93
2022/05/23 08:15:39;;;;;;;1.63;1.50;;;21.40;76.80;;;22.16;47.82;97557.72;4840211;28;113259;-93
2022/05/23 08:18:09;;;;;;;2.37;1.73;;;21.50;76.70;;;22.23;47.50;97554.06;4867375;28;123699;-90
2022/05/23 08:20:38;;;;;;;1.60;1.50;;;21.60;76.70;;;22.26;47.74;97548.41;4840301;28;123131;-92
2022/05/23 08:23:05;;;;;;;1.50;1.40;;;21.60;76.40;;;22.33;47.49;97555.16;4871289;28;116181;-90
2022/05/23 08:25:32;;;;;;;2.73;1.50;;;21.70;76.40;;;22.39;47.46;97550.66;4850848;28;113815;-91
2022/05/23 08:27:58;;;;;;;2.03;1.60;;;21.70;76.30;;;22.44;47.53;97541.75;4868235;28;123890;-92
2022/05/23 08:30:25;;;;;;;2.20;1.57;;;21.80;76.20;;;22.47;47.45;97538.09;4861167;28;123819;-91
2022/05/23 08:32:52;;;;;;;2.10;1.90;;;21.90;76.80;;;22.48;47.28;97548.13;4863572;28;114431;-92
2022/05/23 08:35:19;;;;;;;2.27;1.80;;;21.80;75.90;;;22.52;47.32;97545.28;4852618;29;113987;-92
2022/05/23 08:37:45;;;;;;;2.43;1.70;;;21.90;75.90;;;22.55;47.26;97531.13;4863683;28;123224;-91
2022/05/23 08:40:12;;;;;;;1.70;1.60;;;21.90;76.50;;;22.63;47.11;97529.03;4858128;28;125031;-91
2022/05/23 08:42:45;;;;;;;2.60;2.13;;;22.00;75.80;;;22.65;47.07;97529.41;4858191;28;112557;-92
2022/05/23 08:45:39;;;;;;;2.80;1.93;;;22.00;75.80;;;22.70;47.15;97521.28;4857455;28;114265;-90
2022/05/23 08:48:29;;;;;;;2.07;1.83;;;22.10;75.90;;;22.72;47.22;97509.56;4870722;28;124050;-91
2022/05/23 08:51:17;;;;;;;3.10;1.80;;;22.10;75.90;;;22.73;47.23;97508.38;4849119;28;123568;-93
2022/05/23 08:54:23;;;;;;;2.07;1.90;;;22.10;76.00;;;22.74;47.33;97507.13;4870382;28;114503;-92
2022/05/23 08:56:57;;;;;;;2.43;2.00;;;22.10;75.90;;;22.81;47.43;97507.03;4845881;28;114053;-92
2022/05/23 08:59:39;;;;;;;3.30;1.90;;;22.20;76.30;;;22.83;47.26;97507.38;4857727;28;124133;-89
2022/05/23 09:02:31;;;;;;;2.40;1.90;;;22.20;76.50;;;22.84;47.49;97494.13;4851069;29;125155;-93
2022/05/23 09:05:17;;;;;;;2.73;2.00;;;22.20;76.30;;;22.88;47.70;97490.00;4872188;28;115072;-92
2022/05/23 09:07:54;;;;;;;2.30;2.00;;;22.30;76.40;;;22.91;47.60;97480.69;4855559;28;115583;-93
2022/05/23 09:10:30;;;;;;;3.90;1.93;;;22.30;76.50;;;22.90;47.78;97484.75;4859182;28;123792;-93
2022/05/23 09:12:56;;;;;;;6.10;2.43;;;22.30;76.70;;;22.89;48.07;97488.78;4838543;29;124137;-92
2022/05/23 09:15:24;;;;;;;2.60;1.93;;;22.30;76.80;;;22.94;47.75;97479.84;4864766;28;113770;-90
2022/05/23 09:18:05;;;;;;;3.70;2.30;;;22.30;76.80;;;23.01;47.89;97484.59;4863012;28;113873;-89
2022/05/23 09:20:51;;;;;;;1.90;1.70;;;22.40;76.80;;;23.06;47.53;97503.03;4868413;28;124190;-90
2022/05/23 09:23:49;;;;;;;3.47;1.90;;;22.40;76.60;;;23.07;47.99;97507.44;4871093;28;123982;-91
2022/05/23 09:26:26;;;;;;;3.33;2.40;;;22.50;76.70;;;23.04;47.80;97497.03;4863138;28;113567;-91
2022/05/23 09:28:53;;;;;;;2.63;2.00;;;22.40;76.80;;;23.04;47.92;97505.47;4872367;28;113366;-90
2022/05/23 09:31:48;;;;;;;3.50;1.90;;;22.40;76.70;;;23.04;47.82;97486.56;4876204;28;123735;-92
2022/05/23 09:34:59;;;;;;;2.10;1.90;;;22.50;76.80;;;23.05;48.00;97473.25;4861857;28;124086;-92
2022/05/23 09:37:48;;;;;;;3.40;2.33;;;22.50;76.80;;;23.11;47.86;97489.25;4802445;29;112589;-90
2022/05/23 09:40:30;;;;;;;1.83;1.67;;;22.50;77.10;;;23.15;47.98;97483.56;4843004;28;114665;-92
2022/05/23 09:49:17;;;;;;;3.93;2.23;;;22.60;77.50;;;23.28;48.50;97501.44;4873797;28;115686;-92
2022/05/23 09:51:58;;;;;;;3.53;2.00;;;22.70;77.80;;;23.32;48.20;97487.28;4873880;28;114212;-90
2022/05/23 09:54:33;;;;;;;3.03;2.20;;;22.70;77.80;;;23.35;48.22;97498.50;4867821;28;123748;-91
2022/05/23 09:57:05;;;;;;;1.70;1.60;;;22.70;77.70;;;23.40;48.44;97505.69;4869305;28;124528;-91
2022/05/23 09:59:36;;;;;;;1.87;1.67;;;22.80;77.80;;;23.43;48.27;97495.53;4855250;28;114326;-92
2022/05/23 10:02:32;;;;;;;1.80;1.70;;;22.80;77.80;;;23.48;48.16;97509.97;4851191;28;115173;-92
2022/05/23 10:04:59;;;;;;;2.00;1.80;;;22.90;77.90;;;23.55;48.56;97507.00;4870747;28;124343;-94
2022/05/23 10:07:36;;;;;;;2.20;2.00;;;22.90;78.00;;;23.63;48.22;97512.50;4850931;28;123533;-91
2022/05/23 10:10:29;;;;;;;7.97;2.30;;;23.00;78.10;;;23.65;48.38;97505.22;4852540;28;113884;-91
2022/05/23 10:13:31;;;;;;;2.47;2.27;;;23.00;78.30;;;23.70;48.30;97518.03;4870894;28;113384;-92
2022/05/23 10:16:26;;;;;;;2.00;1.50;;;23.10;78.40;;;23.75;48.25;97512.69;4869102;28;124441;-92
2022/05/23 10:19:04;;;;;;;2.43;1.70;;;23.10;78.30;;;23.77;48.33;97515.88;4844304;28;121894;-91
2022/05/23 10:21:40;;;;;;;2.00;1.80;;;23.20;78.30;;;23.81;48.32;97536.34;4869488;28;114020;-92
2022/05/23 10:24:11;;;;;;;2.20;2.00;;;23.20;78.30;;;23.85;48.37;97532.66;4836488;28;114451;-91
2022/05/23 10:27:00;;;;;;;2.20;2.00;;;23.30;78.50;;;23.84;48.42;97537.50;4868861;28;124963;-90
2022/05/23 10:29:48;;;;;;;2.43;2.23;;;23.30;78.60;;;23.85;48.28;97529.84;4855318;28;122193;-92
2022/05/23 10:32:41;;;;;;;2.40;1.70;;;23.30;78.60;;;23.88;48.48;97535.41;4839716;28;114964;-92
2022/05/23 10:35:24;;;;;;;2.07;1.87;;;23.30;78.60;;;23.96;48.35;97533.25;4870887;28;113627;-91
2022/05/23 10:37:51;;;;;;;1.90;1.70;;;23.40;78.60;;;24.01;48.38;97549.66;4852414;28;124033;-92
2022/05/23 10:43:20;;;;;;;2.90;1.90;;;23.50;78.70;;;24.08;48.35;97560.81;4862791;28;114942;-93
2022/05/23 10:46:01;;;;;;;4.43;1.80;;;23.50;78.60;;;24.10;48.52;97558.38;4866196;28;114113;-91
2022/05/23 10:48:38;;;;;;;2.03;1.93;;;23.50;78.60;;;24.15;48.34;97566.34;4842571;28;123958;-92
2022/05/23 10:51:36;;;;;;;1.67;1.57;;;23.50;78.60;;;24.19;48.44;97571.91;4863226;28;123972;-92
2022/05/23 10:54:12;;;;;;;1.83;1.63;;;23.60;78.70;;;24.25;48.28;97581.44;4865630;28;115202;-89
2022/05/23 10:57:22;;;;;;;1.90;1.80;;;23.60;78.80;;;24.25;48.37;97568.13;4861977;28;115133;-91
2022/05/23 10:59:56;;;;;;;3.40;2.10;;;23.60;78.70;;;24.27;48.31;97567.69;4843438;29;123694;-92
2022/05/23 11:02:39;;;;;;;2.10;1.90;;;23.60;78.80;;;24.29;48.49;97575.72;4862048;28;123862;-91
2022/05/23 11:05:28;;;;;;;3.00;2.40;;;23.70;78.80;;;24.28;48.33;97574.94;4875848;28;115345;-92
2022/05/23 11:08:41;;;;;;;2.07;1.93;;;23.70;78.70;;;24.25;48.44;97593.53;4874146;28;114166;-91
2022/05/23 11:11:25;;;;;;;2.37;2.10;;;23.70;78.70;;;24.23;48.54;97601.66;4863610;28;123799;-94
2022/05/23 11:14:26;;;;;;;2.67;2.20;;;23.70;78.90;;;24.19;48.94;97609.38;4851243;29;122940;-92
2022/05/23 11:17:32;;;;;;;2.43;2.23;;;23.70;79.20;;;24.17;49.00;97630.81;4823867;29;114212;-94
2022/05/23 11:20:38;;;;;;;3.10;2.10;;;23.70;79.50;;;24.14;49.23;97640.94;4862581;28;113580;-92
2022/05/23 11:23:43;;;;;;;2.63;2.30;;;23.60;79.80;;;24.12;49.41;97654.66;4852326;29;124015;-89
2022/05/23 11:26:22;;;;;;;2.40;2.20;;;23.60;80.30;;;24.08;49.90;97661.63;4853544;28;123810;-90
2022/05/23 11:34:55;;;;;;;2.97;2.50;;;23.40;82.50;;;23.76;51.83;97668.63;4839832;29;124215;-91
2022/05/23 11:37:44;;;;;;;4.87;3.23;;;23.30;83.30;;;23.56;53.29;97665.69;4871258;28;123736;-92
2022/05/23 11:40:26;;;;;;;4.27;3.10;;;23.20;85.20;;;23.30;53.93;97642.75;4867171;28;113923;-90
2022/05/23 11:43:00;;;;;;;5.60;2.90;;;23.00;86.00;;;23.12;54.95;97670.38;4864639;28;114099;-91
2022/05/23 11:48:34;;;;;;;5.87;3.60;;;22.60;88.10;;;22.65;56.61;97681.44;4870357;28;123736;-91
2022/05/23 11:51:23;;;;;;;4.73;3.37;;;22.40;89.70;;;22.40;57.27;97662.00;4871370;28;115785;-92
2022/05/23 11:54:10;;;;;;;5.23;3.07;;;22.20;90.10;;;22.23;57.61;97650.53;4871044;28;115374;-93
2022/05/23 11:57:00;;;;;;;7.70;3.60;;;22.00;90.20;;;22.13;58.03;97665.47;4868414;28;124182;-93
2022/05/23 11:59:45;;;;;;;8.33;3.20;;;21.90;90.40;;;22.03;57.71;97636.25;4867214;28;123873;-91
2022/05/23 12:02:12;;;;;;;9.10;2.80;;;21.80;90.60;;;21.96;57.78;97615.84;4869633;28;114283;-93
2022/05/23 12:04:54;;;;;;;5.17;2.70;;;21.60;90.50;;;21.88;57.76;97589.81;4873455;28;114019;-93
2022/05/23 12:07:42;;;;;;;7.27;2.27;;;21.60;90.50;;;21.88;57.46;97578.56;4871413;28;123275;-92
2022/05/23 12:10:26;;;;;;;4.00;2.50;;;21.50;90.40;;;21.88;57.33;97527.94;4871206;28;123071;-93
2022/05/23 12:12:58;;;;;;;4.30;2.50;;;21.50;90.50;;;21.85;57.45;97483.78;4867370;28;113695;-91
2022/05/23 12:15:51;;;;;;;2.63;1.93;;;21.50;90.50;;;21.83;57.24;97385.78;4866788;28;114236;-90
2022/05/23 12:18:23;;;;;;;4.90;2.63;;;21.40;90.30;;;21.87;57.32;97323.88;4873876;28;122915;-90
2022/05/23 12:20:53;;;;;;;3.77;2.83;;;21.40;90.50;;;21.85;57.28;97286.94;4871875;28;122925;-91
2022/05/23 12:23:42;;;;;;;7.27;2.87;;;21.40;90.60;;;21.79;58.25;97221.19;4870523;28;113373;-90
2022/05/23 12:26:10;;;;;;;5.00;2.10;;;21.40;91.10;;;21.77;58.16;97218.78;4852507;28;113013;-93
2022/05/23 12:29:01;;;;;;;4.20;2.80;;;21.30;91.20;;;21.77;58.06;97201.13;4866542;28;124283;-91
2022/05/23 12:31:38;;;;;;;3.27;2.33;;;21.30;91.10;;;21.80;58.05;97181.38;4854132;28;123482;-91
2022/05/23 12:34:12;;;;;;;4.07;2.33;;;21.30;91.20;;;21.82;57.68;97176.13;4855611;29;114174;-92
2022/05/23 12:36:50;;;;;;;5.60;2.40;;;21.30;91.10;;;21.83;57.73;97176.91;4868736;28;114007;-92
2022/05/23 12:39:34;;;;;;;3.03;2.00;;;21.30;91.30;;;21.82;57.67;97217.50;4871120;28;123242;-93
2022/05/23 12:42:25;;;;;;;2.77;2.10;;;21.30;91.30;;;21.83;57.72;97262.06;4870308;28;123814;-92
2022/05/23 12:45:08;;;;;;;3.00;1.67;;;21.30;91.30;;;21.88;57.74;97280.47;4865511;28;114358;-91
2022/05/23 12:47:53;;;;;;;2.57;2.13;;;21.30;91.30;;;21.93;57.34;97301.69;4866320;28;113878;-92
2022/05/23 12:50:48;;;;;;;4.03;1.97;;;21.40;91.20;;;21.92;57.75;97331.03;4855864;28;123730;-88
2022/05/23 12:54:10;;;;;;;4.17;2.23;;;21.40;91.20;;;21.88;57.36;97319.84;4857609;28;124388;-91
2022/05/23 12:57:46;;;;;;;3.10;1.90;;;21.40;91.10;;;21.89;57.35;97329.84;4805809;28;113083;-92